sensor_id;sensor_type;location;lat;lon;timestamp;pressure;altitude;pressure_sealevel;temperature;humidity
74218;BME280;62579;47.288;18.646;2023-08-06T00:01:35;98531.81;;;18.39;100.00
74218;BME280;62579;47.288;18.646;2023-08-06T00:04:00;98526.44;;;18.22;100.00
74218;BME280;62579;47.288;18.646;2023-08-06T00:06:26;98531.38;;;18.23;100.00
74218;BME280;62579;47.288;18.646;2023-08-06T00:08:51;98524.56;;;18.24;100.00
74218;BME280;62579;47.288;18.646;2023-08-06T00:11:16;98529.50;;;18.26;100.00
74218;BME280;62579;47.288;18.646;2023-08-06T00:13:41;98533.25;;;18.30;100.00
74218;BME280;62579;47.288;18.646;2023-08-06T00:16:10;98544.56;;;18.25;100.00
74218;BME280;62579;47.288;18.646;2023-08-06T00:18:36;98546.31;;;18.30;100.00
74218;BME280;62579;47.288;18.646;2023-08-06T00:21:01;98553.69;;;18.27;100.00
74218;BME280;62579;47.288;18.646;2023-08-06T00:23:26;98560.94;;;18.23;100.00
74218;BME280;62579;47.288;18.646;2023-08-06T00:25:51;98557.47;;;18.22;100.00
74218;BME280;62579;47.288;18.646;2023-08-06T00:28:16;98538.63;;;18.28;100.00
74218;BME280;62579;47.288;18.646;2023-08-06T00:30:42;98531.38;;;18.33;100.00
74218;BME280;62579;47.288;18.646;2023-08-06T00:33:07;98541.50;;;18.40;100.00
74218;BME280;62579;47.288;18.646;2023-08-06T00:35:32;98544.84;;;18.48;100.00
74218;BME280;62579;47.288;18.646;2023-08-06T00:37:57;98553.97;;;18.41;100.00
74218;BME280;62579;47.288;18.646;2023-08-06T00:40:22;98550.38;;;18.48;100.00
74218;BME280;62579;47.288;18.646;2023-08-06T00:42:48;98546.59;;;18.53;100.00
74218;BME280;62579;47.288;18.646;2023-08-06T00:45:13;98543.69;;;18.51;100.00
74218;BME280;62579;47.288;18.646;2023-08-06T00:47:38;98543.53;;;18.58;100.00
74218;BME280;62579;47.288;18.646;2023-08-06T00:50:05;98538.75;;;18.59;100.00
74218;BME280;62579;47.288;18.646;2023-08-06T00:52:30;98534.69;;;18.60;100.00
74218;BME280;62579;47.288;18.646;2023-08-06T00:54:56;98539.78;;;18.64;100.00
74218;BME280;62579;47.288;18.646;2023-08-06T00:57:21;98527.00;;;18.68;100.00
74218;BME280;62579;47.288;18.646;2023-08-06T00:59:49;98524.50;;;18.72;100.00
74218;BME280;62579;47.288;18.646;2023-08-06T01:02:14;98522.81;;;18.57;100.00
74218;BME280;62579;47.288;18.646;2023-08-06T01:04:39;98520.06;;;18.57;100.00
74218;BME280;62579;47.288;18.646;2023-08-06T01:09:50;98511.66;;;18.55;100.00
74218;BME280;62579;47.288;18.646;2023-08-06T01:12:21;98507.16;;;18.50;100.00
74218;BME280;62579;47.288;18.646;2023-08-06T01:14:56;98496.72;;;18.49;100.00
74218;BME280;62579;47.288;18.646;2023-08-06T01:17:23;98501.91;;;18.45;100.00
74218;BME280;62579;47.288;18.646;2023-08-06T01:19:48;98494.53;;;18.57;100.00
74218;BME280;62579;47.288;18.646;2023-08-06T01:22:14;98496.88;;;18.41;100.00
74218;BME280;62579;47.288;18.646;2023-08-06T01:24:39;98500.63;;;18.55;100.00
74218;BME280;62579;47.288;18.646;2023-08-06T01:27:14;98502.38;;;18.41;100.00
74218;BME280;62579;47.288;18.646;2023-08-06T01:29:44;98511.50;;;18.44;100.00
74218;BME280;62579;47.288;18.646;2023-08-06T01:32:10;98502.97;;;18.49;100.00
74218;BME280;62579;47.288;18.646;2023-08-06T01:34:36;98500.78;;;18.38;100.00
74218;BME280;62579;47.288;18.646;2023-08-06T01:37:04;98497.59;;;18.42;100.00
74218;BME280;62579;47.288;18.646;2023-08-06T01:39:29;98490.06;;;18.33;100.00
74218;BME280;62579;47.288;18.646;2023-08-06T01:41:54;98490.94;;;18.26;100.00
74218;BME280;62579;47.288;18.646;2023-08-06T01:44:19;98475.72;;;18.25;100.00
74218;BME280;62579;47.288;18.646;2023-08-06T01:46:45;98473.41;;;18.21;100.00
74218;BME280;62579;47.288;18.646;2023-08-06T01:49:10;98477.47;;;18.20;100.00
74218;BME280;62579;47.288;18.646;2023-08-06T01:51:35;98472.53;;;18.19;100.00
74218;BME280;62579;47.288;18.646;2023-08-06T01:54:00;98468.78;;;18.14;100.00
74218;BME280;62579;47.288;18.646;2023-08-06T01:56:26;98465.31;;;17.94;100.00
74218;BME280;62579;47.288;18.646;2023-08-06T01:58:51;98459.66;;;18.02;100.00
74218;BME280;62579;47.288;18.646;2023-08-06T02:01:16;98448.66;;;17.92;100.00
74218;BME280;62579;47.288;18.646;2023-08-06T02:03:42;98451.41;;;17.92;100.00
74218;BME280;62579;47.288;18.646;2023-08-06T02:06:07;98443.72;;;18.00;100.00
74218;BME280;62579;47.288;18.646;2023-08-06T02:08:32;98439.09;;;18.03;100.00
74218;BME280;62579;47.288;18.646;2023-08-06T02:10:57;98436.34;;;17.93;100.00
74218;BME280;62579;47.288;18.646;2023-08-06T02:13:23;98437.91;;;17.96;100.00
74218;BME280;62579;47.288;18.646;2023-08-06T02:15:48;98432.13;;;17.92;100.00
74218;BME280;62579;47.288;18.646;2023-08-06T02:18:14;98423.56;;;17.88;100.00
74218;BME280;62579;47.288;18.646;2023-08-06T02:20:40;98419.25;;;17.95;100.00
74218;BME280;62579;47.288;18.646;2023-08-06T02:23:05;98406.63;;;17.92;100.00
74218;BME280;62579;47.288;18.646;2023-08-06T02:25:30;98397.94;;;17.95;100.00
74218;BME280;62579;47.288;18.646;2023-08-06T02:27:55;98398.09;;;17.97;100.00
74218;BME280;62579;47.288;18.646;2023-08-06T02:30:20;98397.06;;;18.02;100.00
74218;BME280;62579;47.288;18.646;2023-08-06T02:32:46;98400.84;;;17.97;100.00
74218;BME280;62579;47.288;18.646;2023-08-06T02:35:11;98399.38;;;18.06;100.00
74218;BME280;62579;47.288;18.646;2023-08-06T02:37:36;98396.50;;;17.94;100.00
74218;BME280;62579;47.288;18.646;2023-08-06T02:40:01;98395.75;;;17.94;100.00
74218;BME280;62579;47.288;18.646;2023-08-06T02:42:27;98396.50;;;17.94;100.00
74218;BME280;62579;47.288;18.646;2023-08-06T02:44:52;98406.94;;;17.96;100.00
74218;BME280;62579;47.288;18.646;2023-08-06T02:47:20;98408.66;;;17.91;100.00
74218;BME280;62579;47.288;18.646;2023-08-06T02:49:45;98411.72;;;17.86;100.00
74218;BME280;62579;47.288;18.646;2023-08-06T02:52:10;98411.72;;;17.76;100.00
74218;BME280;62579;47.288;18.646;2023-08-06T02:54:36;98421.84;;;17.83;100.00
74218;BME280;62579;47.288;18.646;2023-08-06T02:57:01;98416.19;;;18.00;100.00
74218;BME280;62579;47.288;18.646;2023-08-06T02:59:26;98426.94;;;17.87;100.00
74218;BME280;62579;47.288;18.646;2023-08-06T03:01:51;98422.72;;;17.86;100.00
74218;BME280;62579;47.288;18.646;2023-08-06T03:04:16;98419.84;;;17.74;100.00
74218;BME280;62579;47.288;18.646;2023-08-06T03:06:43;98425.47;;;17.76;100.00
74218;BME280;62579;47.288;18.646;2023-08-06T03:09:08;98414.19;;;17.72;100.00
74218;BME280;62579;47.288;18.646;2023-08-06T03:11:33;98427.50;;;17.57;100.00
74218;BME280;62579;47.288;18.646;2023-08-06T03:13:58;98421.13;;;17.73;100.00
74218;BME280;62579;47.288;18.646;2023-08-06T03:16:24;98418.38;;;17.73;100.00
74218;BME280;62579;47.288;18.646;2023-08-06T03:18:49;98416.22;;;17.72;100.00
74218;BME280;62579;47.288;18.646;2023-08-06T03:21:14;98409.84;;;17.60;100.00
74218;BME280;62579;47.288;18.646;2023-08-06T03:23:39;98405.06;;;17.60;100.00
74218;BME280;62579;47.288;18.646;2023-08-06T03:26:04;98408.53;;;17.61;100.00
74218;BME280;62579;47.288;18.646;2023-08-06T03:28:29;98409.69;;;17.58;100.00
74218;BME280;62579;47.288;18.646;2023-08-06T03:30:58;98411.00;;;17.57;100.00
74218;BME280;62579;47.288;18.646;2023-08-06T03:33:24;98405.03;;;17.31;100.00
74218;BME280;62579;47.288;18.646;2023-08-06T03:35:49;98410.94;;;17.28;100.00
74218;BME280;62579;47.288;18.646;2023-08-06T03:38:14;98415.44;;;17.33;100.00
74218;BME280;62579;47.288;18.646;2023-08-06T03:40:39;98413.84;;;17.30;100.00
74218;BME280;62579;47.288;18.646;2023-08-06T03:43:04;98416.03;;;17.31;100.00
74218;BME280;62579;47.288;18.646;2023-08-06T03:45:29;98408.91;;;17.19;100.00
74218;BME280;62579;47.288;18.646;2023-08-06T03:47:55;98401.81;;;17.25;100.00
74218;BME280;62579;47.288;18.646;2023-08-06T03:50:20;98409.63;;;17.19;100.00
74218;BME280;62579;47.288;18.646;2023-08-06T03:52:45;98392.84;;;17.25;100.00
74218;BME280;62579;47.288;18.646;2023-08-06T03:55:10;98390.38;;;17.19;100.00
74218;BME280;62579;47.288;18.646;2023-08-06T03:57:35;98387.66;;;17.38;100.00
74218;BME280;62579;47.288;18.646;2023-08-06T04:00:01;98395.03;;;17.26;100.00
74218;BME280;62579;47.288;18.646;2023-08-06T04:02:26;98398.22;;;17.23;100.00
74218;BME280;62579;47.288;18.646;2023-08-06T04:04:51;98397.06;;;17.26;100.00
74218;BME280;62579;47.288;18.646;2023-08-06T04:07:18;98398.66;;;17.29;100.00
74218;BME280;62579;47.288;18.646;2023-08-06T04:12:18;98401.81;;;17.25;100.00
74218;BME280;62579;47.288;18.646;2023-08-06T04:14:43;98389.41;;;17.34;100.00
74218;BME280;62579;47.288;18.646;2023-08-06T04:17:08;98386.34;;;17.20;100.00
74218;BME280;62579;47.288;18.646;2023-08-06T04:19:34;98379.97;;;17.27;100.00
74218;BME280;62579;47.288;18.646;2023-08-06T04:21:59;98377.91;;;17.09;100.00
74218;BME280;62579;47.288;18.646;2023-08-06T04:24:24;98373.75;;;17.27;100.00
74218;BME280;62579;47.288;18.646;2023-08-06T04:26:49;98378.09;;;17.20;100.00
74218;BME280;62579;47.288;18.646;2023-08-06T04:29:14;98380.84;;;17.20;100.00
74218;BME280;62579;47.288;18.646;2023-08-06T04:31:39;98386.19;;;17.18;100.00
74218;BME280;62579;47.288;18.646;2023-08-06T04:34:05;98381.56;;;17.21;100.00
74218;BME280;62579;47.288;18.646;2023-08-06T04:36:30;98371.28;;;17.12;100.00
74218;BME280;62579;47.288;18.646;2023-08-06T04:38:55;98370.25;;;17.07;100.00
74218;BME280;62579;47.288;18.646;2023-08-06T04:41:20;98372.88;;;17.15;100.00
74218;BME280;62579;47.288;18.646;2023-08-06T04:43:46;98374.75;;;17.12;100.00
74218;BME280;62579;47.288;18.646;2023-08-06T04:46:11;98371.41;;;17.04;100.00
74218;BME280;62579;47.288;18.646;2023-08-06T04:48:36;98377.78;;;17.07;100.00
74218;BME280;62579;47.288;18.646;2023-08-06T04:51:01;98372.28;;;17.07;100.00
74218;BME280;62579;47.288;18.646;2023-08-06T04:53:26;98377.19;;;17.08;100.00
74218;BME280;62579;47.288;18.646;2023-08-06T04:55:52;98373.56;;;17.06;100.00
74218;BME280;62579;47.288;18.646;2023-08-06T04:58:17;98371.88;;;17.10;100.00
74218;BME280;62579;47.288;18.646;2023-08-06T05:00:42;98374.47;;;17.18;100.00
74218;BME280;62579;47.288;18.646;2023-08-06T05:03:07;98369.13;;;17.10;100.00
74218;BME280;62579;47.288;18.646;2023-08-06T05:05:32;98370.25;;;17.17;100.00
74218;BME280;62579;47.288;18.646;2023-08-06T05:07:58;98380.25;;;17.12;100.00
74218;BME280;62579;47.288;18.646;2023-08-06T05:10:26;98369.66;;;17.09;100.00
74218;BME280;62579;47.288;18.646;2023-08-06T05:12:51;98374.75;;;17.12;100.00
74218;BME280;62579;47.288;18.646;2023-08-06T05:15:17;98376.22;;;17.23;100.00
74218;BME280;62579;47.288;18.646;2023-08-06T05:17:42;98379.06;;;17.06;100.00
74218;BME280;62579;47.288;18.646;2023-08-06T05:20:07;98382.84;;;17.10;100.00
74218;BME280;62579;47.288;18.646;2023-08-06T05:22:33;98380.38;;;17.05;100.00
74218;BME280;62579;47.288;18.646;2023-08-06T05:24:58;98386.44;;;17.03;100.00
74218;BME280;62579;47.288;18.646;2023-08-06T05:27:23;98387.75;;;17.12;100.00
74218;BME280;62579;47.288;18.646;2023-08-06T05:29:48;98387.63;;;17.10;100.00
74218;BME280;62579;47.288;18.646;2023-08-06T05:32:14;98386.16;;;17.09;100.00
74218;BME280;62579;47.288;18.646;2023-08-06T05:34:39;98379.19;;;16.98;100.00
74218;BME280;62579;47.288;18.646;2023-08-06T05:37:04;98373.41;;;16.94;100.00
74218;BME280;62579;47.288;18.646;2023-08-06T05:39:29;98365.19;;;16.94;100.00
74218;BME280;62579;47.288;18.646;2023-08-06T05:41:55;98358.66;;;16.90;100.00
74218;BME280;62579;47.288;18.646;2023-08-06T05:44:20;98358.62;;;16.80;100.00
74218;BME280;62579;47.288;18.646;2023-08-06T05:46:45;98354.56;;;16.81;100.00
74218;BME280;62579;47.288;18.646;2023-08-06T05:49:11;98362.72;;;16.89;100.00
74218;BME280;62579;47.288;18.646;2023-08-06T05:51:38;98360.94;;;16.83;100.00
74218;BME280;62579;47.288;18.646;2023-08-06T05:54:03;98360.09;;;16.91;100.00
74218;BME280;62579;47.288;18.646;2023-08-06T05:56:28;98369.19;;;16.83;100.00
74218;BME280;62579;47.288;18.646;2023-08-06T05:58:53;98363.56;;;16.91;100.00
74218;BME280;62579;47.288;18.646;2023-08-06T06:01:19;98367.75;;;16.92;100.00
74218;BME280;62579;47.288;18.646;2023-08-06T06:03:44;98371.50;;;16.77;100.00
74218;BME280;62579;47.288;18.646;2023-08-06T06:06:09;98353.88;;;16.80;100.00
74218;BME280;62579;47.288;18.646;2023-08-06T06:08:35;98341.41;;;16.79;100.00
74218;BME280;62579;47.288;18.646;2023-08-06T06:11:00;98329.84;;;16.81;100.00
74218;BME280;62579;47.288;18.646;2023-08-06T06:13:25;98336.00;;;16.62;100.00
74218;BME280;62579;47.288;18.646;2023-08-06T06:18:20;98333.84;;;16.61;100.00
74218;BME280;62579;47.288;18.646;2023-08-06T06:20:45;98332.84;;;16.75;100.00
74218;BME280;62579;47.288;18.646;2023-08-06T06:23:10;98342.00;;;16.78;100.00
74218;BME280;62579;47.288;18.646;2023-08-06T06:25:36;98337.19;;;16.69;100.00
74218;BME280;62579;47.288;18.646;2023-08-06T06:28:01;98341.69;;;16.64;100.00
74218;BME280;62579;47.288;18.646;2023-08-06T06:30:26;98349.34;;;16.75;100.00
74218;BME280;62579;47.288;18.646;2023-08-06T06:32:51;98352.81;;;16.76;100.00
74218;BME280;62579;47.288;18.646;2023-08-06T06:35:16;98366.41;;;16.74;100.00
74218;BME280;62579;47.288;18.646;2023-08-06T06:37:42;98360.91;;;16.74;100.00
74218;BME280;62579;47.288;18.646;2023-08-06T06:40:07;98355.28;;;16.72;100.00
74218;BME280;62579;47.288;18.646;2023-08-06T06:42:32;98364.09;;;16.70;100.00
74218;BME280;62579;47.288;18.646;2023-08-06T06:44:57;98349.34;;;16.75;100.00
74218;BME280;62579;47.288;18.646;2023-08-06T06:47:23;98345.63;;;16.80;100.00
74218;BME280;62579;47.288;18.646;2023-08-06T06:49:48;98349.94;;;16.74;100.00
74218;BME280;62579;47.288;18.646;2023-08-06T06:52:14;98350.41;;;16.90;100.00
74218;BME280;62579;47.288;18.646;2023-08-06T06:54:39;98357.47;;;16.83;100.00
74218;BME280;62579;47.288;18.646;2023-08-06T06:57:04;98361.09;;;16.86;100.00
74218;BME280;62579;47.288;18.646;2023-08-06T06:59:31;98361.38;;;16.90;100.00
74218;BME280;62579;47.288;18.646;2023-08-06T07:01:56;98366.88;;;16.90;100.00
74218;BME280;62579;47.288;18.646;2023-08-06T07:04:21;98372.69;;;16.94;100.00
74218;BME280;62579;47.288;18.646;2023-08-06T07:06:47;98373.84;;;16.91;100.00
74218;BME280;62579;47.288;18.646;2023-08-06T07:09:12;98368.75;;;16.87;100.00
74218;BME280;62579;47.288;18.646;2023-08-06T07:11:37;98369.91;;;16.84;100.00
74218;BME280;62579;47.288;18.646;2023-08-06T07:14:02;98379.88;;;16.79;100.00
74218;BME280;62579;47.288;18.646;2023-08-06T07:16:27;98377.28;;;16.81;100.00
74218;BME280;62579;47.288;18.646;2023-08-06T07:18:54;98376.00;;;16.83;100.00
74218;BME280;62579;47.288;18.646;2023-08-06T07:21:19;98374.66;;;16.83;100.00
74218;BME280;62579;47.288;18.646;2023-08-06T07:23:45;98372.50;;;16.82;100.00
74218;BME280;62579;47.288;18.646;2023-08-06T07:26:10;98371.38;;;16.95;100.00
74218;BME280;62579;47.288;18.646;2023-08-06T07:28:35;98371.22;;;16.93;100.00
74218;BME280;62579;47.288;18.646;2023-08-06T07:31:02;98379.78;;;16.97;100.00
74218;BME280;62579;47.288;18.646;2023-08-06T07:33:27;98389.78;;;17.02;100.00
74218;BME280;62579;47.288;18.646;2023-08-06T07:35:52;98403.34;;;16.90;100.00
74218;BME280;62579;47.288;18.646;2023-08-06T07:38:18;98408.56;;;16.96;100.00
74218;BME280;62579;47.288;18.646;2023-08-06T07:40:43;98417.34;;;16.85;100.00
74218;BME280;62579;47.288;18.646;2023-08-06T07:43:08;98408.69;;;16.88;100.00
74218;BME280;62579;47.288;18.646;2023-08-06T07:45:36;98401.44;;;16.83;100.00
74218;BME280;62579;47.288;18.646;2023-08-06T07:48:02;98400.72;;;16.83;100.00
74218;BME280;62579;47.288;18.646;2023-08-06T07:50:28;98400.66;;;16.73;100.00
74218;BME280;62579;47.288;18.646;2023-08-06T07:52:53;98402.72;;;16.72;100.00
74218;BME280;62579;47.288;18.646;2023-08-06T07:55:18;98397.03;;;16.70;100.00
74218;BME280;62579;47.288;18.646;2023-08-06T07:57:43;98420.09;;;16.85;100.00
74218;BME280;62579;47.288;18.646;2023-08-06T08:00:08;98403.19;;;16.88;100.00
74218;BME280;62579;47.288;18.646;2023-08-06T08:02:34;98416.59;;;16.74;100.00
74218;BME280;62579;47.288;18.646;2023-08-06T08:04:59;98428.34;;;16.85;100.00
74218;BME280;62579;47.288;18.646;2023-08-06T08:07:25;98423.25;;;16.81;100.00
74218;BME280;62579;47.288;18.646;2023-08-06T08:09:52;98432.66;;;16.78;100.00
74218;BME280;62579;47.288;18.646;2023-08-06T08:12:17;98434.28;;;16.91;100.00
74218;BME280;62579;47.288;18.646;2023-08-06T08:14:43;98438.19;;;16.88;100.00
74218;BME280;62579;47.288;18.646;2023-08-06T08:17:10;98430.66;;;16.88;100.00
74218;BME280;62579;47.288;18.646;2023-08-06T08:19:36;98430.78;;;16.80;100.00
74218;BME280;62579;47.288;18.646;2023-08-06T08:22:01;98425.44;;;16.83;100.00
74218;BME280;62579;47.288;18.646;2023-08-06T08:24:26;98422.44;;;16.88;100.00
74218;BME280;62579;47.288;18.646;2023-08-06T08:26:52;98417.94;;;16.83;100.00
74218;BME280;62579;47.288;18.646;2023-08-06T08:29:17;98412.72;;;16.87;100.00
74218;BME280;62579;47.288;18.646;2023-08-06T08:31:42;98402.44;;;16.78;100.00
74218;BME280;62579;47.288;18.646;2023-08-06T08:34:08;98401.00;;;16.77;100.00
74218;BME280;62579;47.288;18.646;2023-08-06T08:36:33;98387.38;;;16.79;100.00
74218;BME280;62579;47.288;18.646;2023-08-06T08:38:59;98390.47;;;16.83;100.00
74218;BME280;62579;47.288;18.646;2023-08-06T08:41:24;98363.13;;;16.85;100.00
74218;BME280;62579;47.288;18.646;2023-08-06T08:43:49;98380.22;;;16.93;100.00
74218;BME280;62579;47.288;18.646;2023-08-06T08:46:16;98405.97;;;16.98;100.00
74218;BME280;62579;47.288;18.646;2023-08-06T08:48:43;98424.72;;;16.92;100.00
74218;BME280;62579;47.288;18.646;2023-08-06T08:51:08;98412.00;;;16.87;100.00
74218;BME280;62579;47.288;18.646;2023-08-06T08:53:35;98434.28;;;16.91;100.00
74218;BME280;62579;47.288;18.646;2023-08-06T08:56:03;98430.41;;;17.03;100.00
74218;BME280;62579;47.288;18.646;2023-08-06T08:58:29;98437.22;;;17.02;100.00
74218;BME280;62579;47.288;18.646;2023-08-06T09:00:54;98433.91;;;17.13;99.09
74218;BME280;62579;47.288;18.646;2023-08-06T09:03:20;98420.94;;;17.23;98.49
74218;BME280;62579;47.288;18.646;2023-08-06T09:05:45;98426.28;;;17.40;98.19
74218;BME280;62579;47.288;18.646;2023-08-06T09:08:15;98416.16;;;17.33;98.17
74218;BME280;62579;47.288;18.646;2023-08-06T09:10:42;98424.44;;;17.53;97.35
74218;BME280;62579;47.288;18.646;2023-08-06T09:13:08;98418.22;;;17.52;95.16
74218;BME280;62579;47.288;18.646;2023-08-06T09:15:33;98430.56;;;17.61;96.08
74218;BME280;62579;47.288;18.646;2023-08-06T09:17:59;98429.69;;;17.58;92.95
74218;BME280;62579;47.288;18.646;2023-08-06T09:20:24;98434.41;;;17.48;93.83
74218;BME280;62579;47.288;18.646;2023-08-06T09:22:49;98434.25;;;17.36;95.97
74218;BME280;62579;47.288;18.646;2023-08-06T09:25:24;98431.94;;;17.33;96.24
74218;BME280;62579;47.288;18.646;2023-08-06T09:27:50;98425.28;;;17.36;95.38
74218;BME280;62579;47.288;18.646;2023-08-06T09:30:28;98425.44;;;17.38;95.42
74218;BME280;62579;47.288;18.646;2023-08-06T09:32:54;98425.00;;;17.41;95.12
74218;BME280;62579;47.288;18.646;2023-08-06T09:35:19;98417.63;;;17.44;94.89
74218;BME280;62579;47.288;18.646;2023-08-06T09:37:45;98419.34;;;17.49;94.92
74218;BME280;62579;47.288;18.646;2023-08-06T09:40:24;98427.81;;;17.61;93.26
74218;BME280;62579;47.288;18.646;2023-08-06T09:42:49;98436.78;;;17.61;92.83
74218;BME280;62579;47.288;18.646;2023-08-06T09:45:16;98420.00;;;17.67;92.97
74218;BME280;62579;47.288;18.646;2023-08-06T09:47:41;98424.31;;;17.70;93.92
74218;BME280;62579;47.288;18.646;2023-08-06T09:50:14;98429.09;;;17.79;92.12
74218;BME280;62579;47.288;18.646;2023-08-06T09:52:39;98430.97;;;17.76;92.74
74218;BME280;62579;47.288;18.646;2023-08-06T09:55:05;98434.47;;;17.77;92.95
74218;BME280;62579;47.288;18.646;2023-08-06T09:57:30;98440.53;;;17.75;90.21
74218;BME280;62579;47.288;18.646;2023-08-06T10:02:25;98447.66;;;17.69;90.45
74218;BME280;62579;47.288;18.646;2023-08-06T10:04:51;98459.38;;;17.79;88.14
74218;BME280;62579;47.288;18.646;2023-08-06T10:07:17;98462.13;;;17.69;90.03
74218;BME280;62579;47.288;18.646;2023-08-06T10:09:43;98475.59;;;17.75;88.99
74218;BME280;62579;47.288;18.646;2023-08-06T10:12:09;98471.69;;;17.68;90.75
74218;BME280;62579;47.288;18.646;2023-08-06T10:14:35;98482.13;;;17.79;88.74
74218;BME280;62579;47.288;18.646;2023-08-06T10:17:01;98486.75;;;17.77;87.94
74218;BME280;62579;47.288;18.646;2023-08-06T10:19:27;98496.16;;;17.83;89.43
74218;BME280;62579;47.288;18.646;2023-08-06T10:22:10;98495.31;;;17.90;89.58
74218;BME280;62579;47.288;18.646;2023-08-06T10:24:46;98506.47;;;17.83;89.62
74218;BME280;62579;47.288;18.646;2023-08-06T10:27:11;98512.84;;;17.85;89.40
74218;BME280;62579;47.288;18.646;2023-08-06T10:29:36;98502.53;;;17.76;89.04
74218;BME280;62579;47.288;18.646;2023-08-06T10:32:02;98496.72;;;17.72;88.32
74218;BME280;62579;47.288;18.646;2023-08-06T10:37:15;98479.34;;;17.89;87.48
74218;BME280;62579;47.288;18.646;2023-08-06T10:39:47;98499.34;;;17.89;87.75
74218;BME280;62579;47.288;18.646;2023-08-06T10:42:22;98496.59;;;17.89;88.12
74218;BME280;62579;47.288;18.646;2023-08-06T10:47:38;98500.81;;;17.90;87.36
74218;BME280;62579;47.288;18.646;2023-08-06T10:50:16;98510.34;;;17.89;87.17
74218;BME280;62579;47.288;18.646;2023-08-06T10:52:46;98495.03;;;17.96;87.68
74218;BME280;62579;47.288;18.646;2023-08-06T10:55:11;98508.50;;;18.02;87.38
74218;BME280;62579;47.288;18.646;2023-08-06T10:57:37;98506.59;;;18.04;87.53
74218;BME280;62579;47.288;18.646;2023-08-06T11:00:06;98500.34;;;18.13;87.39
74218;BME280;62579;47.288;18.646;2023-08-06T11:02:35;98505.28;;;18.05;87.20
74218;BME280;62579;47.288;18.646;2023-08-06T11:05:10;98511.97;;;18.12;87.88
74218;BME280;62579;47.288;18.646;2023-08-06T11:07:35;98519.78;;;18.15;86.02
74218;BME280;62579;47.288;18.646;2023-08-06T11:10:05;98518.19;;;18.12;85.77
74218;BME280;62579;47.288;18.646;2023-08-06T11:12:31;98517.75;;;18.06;87.37
74218;BME280;62579;47.288;18.646;2023-08-06T11:14:56;98518.34;;;18.14;87.00
74218;BME280;62579;47.288;18.646;2023-08-06T11:17:22;98520.78;;;18.10;86.18
74218;BME280;62579;47.288;18.646;2023-08-06T11:19:47;98518.62;;;18.09;86.54
74218;BME280;62579;47.288;18.646;2023-08-06T11:22:14;98512.09;;;18.14;85.48
74218;BME280;62579;47.288;18.646;2023-08-06T11:24:39;98506.31;;;18.10;85.99
74218;BME280;62579;47.288;18.646;2023-08-06T11:27:11;98499.03;;;18.24;85.49
74218;BME280;62579;47.288;18.646;2023-08-06T11:29:40;98507.47;;;18.26;86.19
74218;BME280;62579;47.288;18.646;2023-08-06T11:32:05;98511.22;;;18.30;87.43
74218;BME280;62579;47.288;18.646;2023-08-06T11:34:31;98513.28;;;18.20;86.71
74218;BME280;62579;47.288;18.646;2023-08-06T11:36:56;98506.59;;;18.33;86.77
74218;BME280;62579;47.288;18.646;2023-08-06T11:39:21;98517.88;;;18.27;86.20
74218;BME280;62579;47.288;18.646;2023-08-06T11:41:47;98514.44;;;18.17;84.75
74218;BME280;62579;47.288;18.646;2023-08-06T11:44:13;98518.62;;;18.18;84.81
74218;BME280;62579;47.288;18.646;2023-08-06T11:49:17;98518.62;;;18.28;84.59
74218;BME280;62579;47.288;18.646;2023-08-06T11:51:46;98530.19;;;18.26;85.47
74218;BME280;62579;47.288;18.646;2023-08-06T11:54:11;98530.37;;;18.28;86.06
74218;BME280;62579;47.288;18.646;2023-08-06T11:56:36;98530.94;;;18.17;85.85
74218;BME280;62579;47.288;18.646;2023-08-06T11:59:01;98528.91;;;18.08;85.25
74218;BME280;62579;47.288;18.646;2023-08-06T12:01:27;98538.34;;;18.15;86.40
74218;BME280;62579;47.288;18.646;2023-08-06T12:03:52;98535.88;;;18.19;86.26
74218;BME280;62579;47.288;18.646;2023-08-06T12:06:26;98536.47;;;18.17;85.79
74218;BME280;62579;47.288;18.646;2023-08-06T12:08:51;98551.53;;;18.16;85.32
74218;BME280;62579;47.288;18.646;2023-08-06T12:11:16;98546.44;;;18.13;84.38
74218;BME280;62579;47.288;18.646;2023-08-06T12:13:42;98553.25;;;18.12;84.05
74218;BME280;62579;47.288;18.646;2023-08-06T12:16:07;98548.91;;;18.18;84.94
74218;BME280;62579;47.288;18.646;2023-08-06T12:18:32;98558.63;;;18.10;85.98
74218;BME280;62579;47.288;18.646;2023-08-06T12:20:57;98566.88;;;18.10;85.21
74218;BME280;62579;47.288;18.646;2023-08-06T12:23:23;98557.59;;;18.24;85.40
74218;BME280;62579;47.288;18.646;2023-08-06T12:25:48;98556.28;;;18.16;84.79
74218;BME280;62579;47.288;18.646;2023-08-06T12:28:14;98562.25;;;18.22;84.18
74218;BME280;62579;47.288;18.646;2023-08-06T12:30:39;98564.84;;;18.29;85.21
74218;BME280;62579;47.288;18.646;2023-08-06T12:33:07;98568.19;;;18.37;82.81
74218;BME280;62579;47.288;18.646;2023-08-06T12:35:33;98569.34;;;18.34;82.34
74218;BME280;62579;47.288;18.646;2023-08-06T12:37:58;98570.22;;;18.27;83.50
74218;BME280;62579;47.288;18.646;2023-08-06T12:40:24;98578.19;;;18.33;83.45
74218;BME280;62579;47.288;18.646;2023-08-06T12:42:52;98573.41;;;18.33;84.34
74218;BME280;62579;47.288;18.646;2023-08-06T12:45:18;98580.22;;;18.32;85.75
74218;BME280;62579;47.288;18.646;2023-08-06T12:47:46;98583.72;;;18.23;87.12
74218;BME280;62579;47.288;18.646;2023-08-06T12:50:11;98599.16;;;17.99;89.52
74218;BME280;62579;47.288;18.646;2023-08-06T12:52:36;98604.53;;;17.97;92.50
74218;BME280;62579;47.288;18.646;2023-08-06T12:55:01;98604.47;;;17.69;95.90